sensor_id;sensor_type;location;lat;lon;timestamp;P1;durP1;ratioP1;P2;durP2;ratioP2
58878;SDS011;44660;42.664;23.266;2023-03-30T00:00:40;3.50;;;1.65;;
58878;SDS011;44660;42.664;23.266;2023-03-30T00:03:07;2.22;;;1.40;;
58878;SDS011;44660;42.664;23.266;2023-03-30T00:05:33;3.70;;;1.95;;
58878;SDS011;44660;42.664;23.266;2023-03-30T00:07:59;4.35;;;1.52;;
58878;SDS011;44660;42.664;23.266;2023-03-30T00:10:25;4.53;;;1.63;;
58878;SDS011;44660;42.664;23.266;2023-03-30T00:12:51;6.30;;;1.70;;
58878;SDS011;44660;42.664;23.266;2023-03-30T00:15:18;3.97;;;1.70;;
58878;SDS011;44660;42.664;23.266;2023-03-30T00:17:45;5.13;;;1.85;;
58878;SDS011;44660;42.664;23.266;2023-03-30T00:20:11;4.13;;;1.70;;
58878;SDS011;44660;42.664;23.266;2023-03-30T00:22:42;3.55;;;1.70;;
58878;SDS011;44660;42.664;23.266;2023-03-30T00:27:35;3.28;;;1.63;;
58878;SDS011;44660;42.664;23.266;2023-03-30T00:30:02;5.05;;;1.83;;
58878;SDS011;44660;42.664;23.266;2023-03-30T00:32:28;3.22;;;1.60;;
58878;SDS011;44660;42.664;23.266;2023-03-30T00:34:54;5.35;;;1.83;;
58878;SDS011;44660;42.664;23.266;2023-03-30T00:37:20;4.78;;;2.05;;
58878;SDS011;44660;42.664;23.266;2023-03-30T00:39:45;3.45;;;1.92;;
58878;SDS011;44660;42.664;23.266;2023-03-30T00:42:12;6.38;;;1.80;;
58878;SDS011;44660;42.664;23.266;2023-03-30T00:48:12;2.92;;;1.60;;
58878;SDS011;44660;42.664;23.266;2023-03-30T00:50:44;4.07;;;1.85;;
58878;SDS011;44660;42.664;23.266;2023-03-30T00:55:55;4.15;;;1.80;;
58878;SDS011;44660;42.664;23.266;2023-03-30T00:58:22;4.60;;;2.08;;
58878;SDS011;44660;42.664;23.266;2023-03-30T01:00:49;2.83;;;1.70;;
58878;SDS011;44660;42.664;23.266;2023-03-30T01:03:18;3.63;;;1.58;;
58878;SDS011;44660;42.664;23.266;2023-03-30T01:05:53;2.83;;;1.80;;
58878;SDS011;44660;42.664;23.266;2023-03-30T01:08:21;3.83;;;1.60;;
58878;SDS011;44660;42.664;23.266;2023-03-30T01:10:48;5.32;;;2.17;;
58878;SDS011;44660;42.664;23.266;2023-03-30T01:13:14;3.13;;;1.70;;
58878;SDS011;44660;42.664;23.266;2023-03-30T01:18:43;3.50;;;1.85;;
58878;SDS011;44660;42.664;23.266;2023-03-30T01:21:20;4.35;;;1.65;;
58878;SDS011;44660;42.664;23.266;2023-03-30T01:26:42;3.83;;;1.95;;
58878;SDS011;44660;42.664;23.266;2023-03-30T01:32:04;3.40;;;1.90;;
58878;SDS011;44660;42.664;23.266;2023-03-30T01:56:03;7.85;;;1.70;;
58878;SDS011;44660;42.664;23.266;2023-03-30T01:58:36;4.97;;;1.73;;
58878;SDS011;44660;42.664;23.266;2023-03-30T02:01:07;7.50;;;1.90;;
58878;SDS011;44660;42.664;23.266;2023-03-30T02:03:38;4.32;;;1.75;;
58878;SDS011;44660;42.664;23.266;2023-03-30T02:06:09;6.55;;;2.08;;
58878;SDS011;44660;42.664;23.266;2023-03-30T02:08:41;3.35;;;2.05;;
58878;SDS011;44660;42.664;23.266;2023-03-30T02:11:08;4.57;;;1.88;;
58878;SDS011;44660;42.664;23.266;2023-03-30T02:13:33;3.97;;;1.95;;
58878;SDS011;44660;42.664;23.266;2023-03-30T02:16:12;4.47;;;2.17;;
58878;SDS011;44660;42.664;23.266;2023-03-30T02:18:44;5.85;;;2.30;;
58878;SDS011;44660;42.664;23.266;2023-03-30T02:21:10;5.82;;;1.83;;
58878;SDS011;44660;42.664;23.266;2023-03-30T02:23:37;2.08;;;1.45;;
58878;SDS011;44660;42.664;23.266;2023-03-30T02:26:06;3.65;;;2.08;;
58878;SDS011;44660;42.664;23.266;2023-03-30T02:28:33;6.00;;;1.90;;
58878;SDS011;44660;42.664;23.266;2023-03-30T02:30:59;2.95;;;1.77;;
58878;SDS011;44660;42.664;23.266;2023-03-30T02:33:32;4.78;;;1.92;;
58878;SDS011;44660;42.664;23.266;2023-03-30T02:36:25;4.13;;;1.98;;
58878;SDS011;44660;42.664;23.266;2023-03-30T02:47:45;5.70;;;3.13;;
58878;SDS011;44660;42.664;23.266;2023-03-30T02:49:54;2.40;;;1.60;;
58878;SDS011;44660;42.664;23.266;2023-03-30T02:52:38;2.55;;;1.70;;
58878;SDS011;44660;42.664;23.266;2023-03-30T02:55:15;4.70;;;1.70;;
58878;SDS011;44660;42.664;23.266;2023-03-30T02:58:02;8.85;;;3.13;;
58878;SDS011;44660;42.664;23.266;2023-03-30T03:00:43;5.82;;;2.20;;
58878;SDS011;44660;42.664;23.266;2023-03-30T03:03:22;2.63;;;1.88;;
58878;SDS011;44660;42.664;23.266;2023-03-30T03:05:52;4.05;;;1.73;;
58878;SDS011;44660;42.664;23.266;2023-03-30T03:08:21;2.60;;;2.00;;
58878;SDS011;44660;42.664;23.266;2023-03-30T03:10:48;4.55;;;2.10;;
58878;SDS011;44660;42.664;23.266;2023-03-30T03:13:16;3.60;;;1.83;;
58878;SDS011;44660;42.664;23.266;2023-03-30T03:15:44;4.10;;;2.00;;
58878;SDS011;44660;42.664;23.266;2023-03-30T03:18:13;4.63;;;2.22;;
58878;SDS011;44660;42.664;23.266;2023-03-30T03:20:39;3.50;;;2.30;;
58878;SDS011;44660;42.664;23.266;2023-03-30T03:23:04;7.32;;;3.05;;
58878;SDS011;44660;42.664;23.266;2023-03-30T03:25:30;2.63;;;2.30;;
58878;SDS011;44660;42.664;23.266;2023-03-30T03:27:56;3.53;;;2.03;;
58878;SDS011;44660;42.664;23.266;2023-03-30T03:30:22;3.90;;;2.05;;
58878;SDS011;44660;42.664;23.266;2023-03-30T03:32:48;3.13;;;2.28;;
58878;SDS011;44660;42.664;23.266;2023-03-30T03:35:14;5.65;;;2.30;;
58878;SDS011;44660;42.664;23.266;2023-03-30T03:37:41;4.97;;;2.30;;
58878;SDS011;44660;42.664;23.266;2023-03-30T03:40:06;3.40;;;2.30;;
58878;SDS011;44660;42.664;23.266;2023-03-30T03:42:34;4.03;;;2.50;;
58878;SDS011;44660;42.664;23.266;2023-03-30T03:45:00;17.13;;;7.32;;
58878;SDS011;44660;42.664;23.266;2023-03-30T03:47:25;7.22;;;3.53;;
58878;SDS011;44660;42.664;23.266;2023-03-30T03:49:50;4.88;;;3.05;;
58878;SDS011;44660;42.664;23.266;2023-03-30T03:52:16;6.38;;;4.03;;
58878;SDS011;44660;42.664;23.266;2023-03-30T03:54:41;5.57;;;3.25;;
58878;SDS011;44660;42.664;23.266;2023-03-30T03:57:07;10.05;;;6.15;;
58878;SDS011;44660;42.664;23.266;2023-03-30T03:59:32;6.20;;;2.75;;
58878;SDS011;44660;42.664;23.266;2023-03-30T04:01:58;4.57;;;2.33;;
58878;SDS011;44660;42.664;23.266;2023-03-30T04:04:24;10.43;;;2.42;;
58878;SDS011;44660;42.664;23.266;2023-03-30T04:06:49;4.88;;;2.58;;
58878;SDS011;44660;42.664;23.266;2023-03-30T04:09:15;6.50;;;2.55;;
58878;SDS011;44660;42.664;23.266;2023-03-30T04:11:41;7.10;;;2.50;;
58878;SDS011;44660;42.664;23.266;2023-03-30T04:14:07;5.82;;;2.65;;
58878;SDS011;44660;42.664;23.266;2023-03-30T04:16:32;4.82;;;2.58;;
58878;SDS011;44660;42.664;23.266;2023-03-30T04:18:58;8.57;;;2.65;;
58878;SDS011;44660;42.664;23.266;2023-03-30T04:21:24;8.35;;;2.70;;
58878;SDS011;44660;42.664;23.266;2023-03-30T04:23:50;6.50;;;3.17;;
58878;SDS011;44660;42.664;23.266;2023-03-30T04:26:16;5.22;;;2.83;;
58878;SDS011;44660;42.664;23.266;2023-03-30T04:28:41;6.10;;;3.03;;
58878;SDS011;44660;42.664;23.266;2023-03-30T04:31:08;6.47;;;2.80;;
58878;SDS011;44660;42.664;23.266;2023-03-30T04:33:35;6.22;;;2.63;;
58878;SDS011;44660;42.664;23.266;2023-03-30T04:36:03;5.65;;;2.75;;
58878;SDS011;44660;42.664;23.266;2023-03-30T04:38:29;5.22;;;2.63;;
58878;SDS011;44660;42.664;23.266;2023-03-30T04:40:55;6.57;;;2.80;;
58878;SDS011;44660;42.664;23.266;2023-03-30T04:43:21;4.90;;;2.78;;
58878;SDS011;44660;42.664;23.266;2023-03-30T04:45:48;6.15;;;2.85;;
58878;SDS011;44660;42.664;23.266;2023-03-30T04:48:15;8.02;;;3.15;;
58878;SDS011;44660;42.664;23.266;2023-03-30T04:50:40;5.85;;;2.70;;
58878;SDS011;44660;42.664;23.266;2023-03-30T04:53:07;5.25;;;2.63;;
58878;SDS011;44660;42.664;23.266;2023-03-30T04:55:33;5.47;;;2.72;;
58878;SDS011;44660;42.664;23.266;2023-03-30T04:57:59;3.97;;;2.65;;
58878;SDS011;44660;42.664;23.266;2023-03-30T05:00:24;5.32;;;2.25;;
58878;SDS011;44660;42.664;23.266;2023-03-30T05:02:51;9.35;;;4.70;;
58878;SDS011;44660;42.664;23.266;2023-03-30T05:05:17;9.95;;;4.28;;
58878;SDS011;44660;42.664;23.266;2023-03-30T05:07:42;7.40;;;2.25;;
58878;SDS011;44660;42.664;23.266;2023-03-30T05:10:08;7.68;;;2.72;;
58878;SDS011;44660;42.664;23.266;2023-03-30T05:12:34;3.78;;;2.38;;
58878;SDS011;44660;42.664;23.266;2023-03-30T05:14:59;8.00;;;3.10;;
58878;SDS011;44660;42.664;23.266;2023-03-30T05:17:25;3.65;;;2.10;;
58878;SDS011;44660;42.664;23.266;2023-03-30T05:19:50;7.35;;;2.20;;
58878;SDS011;44660;42.664;23.266;2023-03-30T05:22:16;5.90;;;2.90;;
58878;SDS011;44660;42.664;23.266;2023-03-30T05:24:41;4.38;;;2.42;;
58878;SDS011;44660;42.664;23.266;2023-03-30T05:27:07;4.18;;;2.40;;
58878;SDS011;44660;42.664;23.266;2023-03-30T05:29:32;6.85;;;2.53;;
58878;SDS011;44660;42.664;23.266;2023-03-30T05:31:58;4.60;;;2.50;;
58878;SDS011;44660;42.664;23.266;2023-03-30T05:34:23;11.20;;;4.30;;
58878;SDS011;44660;42.664;23.266;2023-03-30T05:36:49;11.27;;;4.35;;
58878;SDS011;44660;42.664;23.266;2023-03-30T05:39:14;5.35;;;3.28;;
58878;SDS011;44660;42.664;23.266;2023-03-30T05:41:40;5.47;;;3.10;;
58878;SDS011;44660;42.664;23.266;2023-03-30T05:44:05;7.05;;;3.42;;
58878;SDS011;44660;42.664;23.266;2023-03-30T05:46:31;6.63;;;3.50;;
58878;SDS011;44660;42.664;23.266;2023-03-30T05:48:57;13.10;;;6.32;;
58878;SDS011;44660;42.664;23.266;2023-03-30T05:51:22;8.88;;;4.97;;
58878;SDS011;44660;42.664;23.266;2023-03-30T05:53:48;11.80;;;3.67;;
58878;SDS011;44660;42.664;23.266;2023-03-30T05:56:13;6.85;;;3.03;;
58878;SDS011;44660;42.664;23.266;2023-03-30T05:58:39;10.10;;;3.92;;
58878;SDS011;44660;42.664;23.266;2023-03-30T06:01:05;10.45;;;3.90;;
58878;SDS011;44660;42.664;23.266;2023-03-30T06:03:33;12.80;;;3.47;;
58878;SDS011;44660;42.664;23.266;2023-03-30T06:05:59;11.20;;;3.80;;
58878;SDS011;44660;42.664;23.266;2023-03-30T06:08:24;18.58;;;9.88;;
58878;SDS011;44660;42.664;23.266;2023-03-30T06:10:54;59.72;;;27.50;;
58878;SDS011;44660;42.664;23.266;2023-03-30T06:13:20;36.42;;;19.00;;
58878;SDS011;44660;42.664;23.266;2023-03-30T06:15:46;12.10;;;6.32;;
58878;SDS011;44660;42.664;23.266;2023-03-30T06:18:12;11.00;;;4.53;;
58878;SDS011;44660;42.664;23.266;2023-03-30T06:20:38;11.65;;;3.45;;
58878;SDS011;44660;42.664;23.266;2023-03-30T06:23:03;6.88;;;3.58;;
58878;SDS011;44660;42.664;23.266;2023-03-30T06:25:29;11.57;;;5.60;;
58878;SDS011;44660;42.664;23.266;2023-03-30T06:27:55;10.40;;;5.85;;
58878;SDS011;44660;42.664;23.266;2023-03-30T06:30:21;14.52;;;6.72;;
58878;SDS011;44660;42.664;23.266;2023-03-30T06:32:47;14.98;;;5.72;;
58878;SDS011;44660;42.664;23.266;2023-03-30T06:35:13;18.92;;;7.88;;
58878;SDS011;44660;42.664;23.266;2023-03-30T06:37:40;13.50;;;6.75;;
58878;SDS011;44660;42.664;23.266;2023-03-30T06:40:06;18.30;;;7.13;;
58878;SDS011;44660;42.664;23.266;2023-03-30T06:42:36;12.88;;;8.15;;
58878;SDS011;44660;42.664;23.266;2023-03-30T06:45:02;19.50;;;8.88;;
58878;SDS011;44660;42.664;23.266;2023-03-30T06:47:28;12.27;;;6.97;;
58878;SDS011;44660;42.664;23.266;2023-03-30T06:49:54;11.35;;;6.78;;
58878;SDS011;44660;42.664;23.266;2023-03-30T06:52:19;13.38;;;6.75;;
58878;SDS011;44660;42.664;23.266;2023-03-30T06:54:45;13.82;;;6.45;;
58878;SDS011;44660;42.664;23.266;2023-03-30T06:57:10;14.00;;;6.55;;
58878;SDS011;44660;42.664;23.266;2023-03-30T06:59:35;17.77;;;7.07;;
58878;SDS011;44660;42.664;23.266;2023-03-30T07:02:01;9.68;;;5.40;;
58878;SDS011;44660;42.664;23.266;2023-03-30T07:04:27;10.48;;;5.72;;
58878;SDS011;44660;42.664;23.266;2023-03-30T07:06:53;11.15;;;5.07;;
58878;SDS011;44660;42.664;23.266;2023-03-30T07:09:22;11.20;;;4.57;;
58878;SDS011;44660;42.664;23.266;2023-03-30T07:11:48;10.80;;;4.78;;
58878;SDS011;44660;42.664;23.266;2023-03-30T07:14:14;12.15;;;5.97;;
58878;SDS011;44660;42.664;23.266;2023-03-30T07:16:39;13.90;;;5.10;;
58878;SDS011;44660;42.664;23.266;2023-03-30T07:19:05;10.13;;;5.10;;
58878;SDS011;44660;42.664;23.266;2023-03-30T07:21:31;8.82;;;5.13;;
58878;SDS011;44660;42.664;23.266;2023-03-30T07:23:56;10.95;;;5.63;;
58878;SDS011;44660;42.664;23.266;2023-03-30T07:26:25;8.18;;;4.95;;
58878;SDS011;44660;42.664;23.266;2023-03-30T07:28:50;11.90;;;5.35;;
58878;SDS011;44660;42.664;23.266;2023-03-30T07:31:16;15.73;;;4.45;;
58878;SDS011;44660;42.664;23.266;2023-03-30T07:33:43;8.80;;;4.70;;
58878;SDS011;44660;42.664;23.266;2023-03-30T07:36:09;9.27;;;5.00;;
58878;SDS011;44660;42.664;23.266;2023-03-30T07:38:35;13.32;;;4.85;;
58878;SDS011;44660;42.664;23.266;2023-03-30T07:41:04;7.60;;;4.47;;
58878;SDS011;44660;42.664;23.266;2023-03-30T07:43:31;7.72;;;4.60;;
58878;SDS011;44660;42.664;23.266;2023-03-30T07:45:57;10.40;;;5.60;;
58878;SDS011;44660;42.664;23.266;2023-03-30T07:48:22;10.48;;;5.68;;
58878;SDS011;44660;42.664;23.266;2023-03-30T07:50:47;17.13;;;7.00;;
58878;SDS011;44660;42.664;23.266;2023-03-30T07:53:13;15.15;;;6.80;;
58878;SDS011;44660;42.664;23.266;2023-03-30T07:55:38;16.58;;;7.15;;
58878;SDS011;44660;42.664;23.266;2023-03-30T07:58:04;14.25;;;6.40;;
58878;SDS011;44660;42.664;23.266;2023-03-30T08:00:31;12.82;;;7.00;;
58878;SDS011;44660;42.664;23.266;2023-03-30T08:02:58;11.65;;;6.40;;
58878;SDS011;44660;42.664;23.266;2023-03-30T08:05:23;13.30;;;6.22;;
58878;SDS011;44660;42.664;23.266;2023-03-30T08:07:49;11.95;;;6.15;;
58878;SDS011;44660;42.664;23.266;2023-03-30T08:10:14;10.45;;;5.55;;
58878;SDS011;44660;42.664;23.266;2023-03-30T08:12:40;11.07;;;6.22;;
58878;SDS011;44660;42.664;23.266;2023-03-30T08:15:06;11.35;;;5.85;;
58878;SDS011;44660;42.664;23.266;2023-03-30T08:17:32;14.77;;;6.50;;
58878;SDS011;44660;42.664;23.266;2023-03-30T08:19:57;12.90;;;6.90;;
58878;SDS011;44660;42.664;23.266;2023-03-30T08:22:23;13.38;;;6.03;;
58878;SDS011;44660;42.664;23.266;2023-03-30T08:24:48;10.90;;;6.45;;
58878;SDS011;44660;42.664;23.266;2023-03-30T08:27:14;9.65;;;6.13;;
58878;SDS011;44660;42.664;23.266;2023-03-30T08:29:39;13.32;;;6.93;;
58878;SDS011;44660;42.664;23.266;2023-03-30T08:32:05;10.98;;;5.90;;
58878;SDS011;44660;42.664;23.266;2023-03-30T08:34:31;13.38;;;4.95;;
58878;SDS011;44660;42.664;23.266;2023-03-30T08:36:57;11.63;;;6.07;;
58878;SDS011;44660;42.664;23.266;2023-03-30T08:39:23;11.73;;;5.10;;
58878;SDS011;44660;42.664;23.266;2023-03-30T08:41:51;9.55;;;4.80;;
58878;SDS011;44660;42.664;23.266;2023-03-30T08:44:51;8.60;;;3.90;;
58878;SDS011;44660;42.664;23.266;2023-03-30T08:47:30;8.32;;;4.13;;
58878;SDS011;44660;42.664;23.266;2023-03-30T08:50:05;8.30;;;4.63;;
58878;SDS011;44660;42.664;23.266;2023-03-30T08:52:35;11.13;;;4.72;;
58878;SDS011;44660;42.664;23.266;2023-03-30T08:55:01;11.35;;;5.32;;
58878;SDS011;44660;42.664;23.266;2023-03-30T09:02:45;5.78;;;3.10;;
58878;SDS011;44660;42.664;23.266;2023-03-30T09:05:30;7.00;;;2.83;;
58878;SDS011;44660;42.664;23.266;2023-03-30T09:11:33;5.72;;;2.03;;
58878;SDS011;44660;42.664;23.266;2023-03-30T09:13:38;4.50;;;1.70;;
58878;SDS011;44660;42.664;23.266;2023-03-30T09:16:11;6.22;;;1.88;;
58878;SDS011;44660;42.664;23.266;2023-03-30T09:18:43;3.47;;;1.80;;
58878;SDS011;44660;42.664;23.266;2023-03-30T09:21:13;5.72;;;1.52;;
58878;SDS011;44660;42.664;23.266;2023-03-30T09:23:39;3.25;;;1.80;;
58878;SDS011;44660;42.664;23.266;2023-03-30T09:26:48;3.53;;;1.83;;
58878;SDS011;44660;42.664;23.266;2023-03-30T09:29:10;5.60;;;1.77;;
58878;SDS011;44660;42.664;23.266;2023-03-30T09:31:46;3.95;;;2.00;;
58878;SDS011;44660;42.664;23.266;2023-03-30T09:37:07;3.90;;;1.83;;
58878;SDS011;44660;42.664;23.266;2023-03-30T09:39:35;3.10;;;1.90;;
58878;SDS011;44660;42.664;23.266;2023-03-30T09:47:40;4.05;;;1.77;;
58878;SDS011;44660;42.664;23.266;2023-03-30T09:50:07;5.22;;;1.65;;
58878;SDS011;44660;42.664;23.266;2023-03-30T09:52:40;3.88;;;1.80;;
58878;SDS011;44660;42.664;23.266;2023-03-30T09:55:24;2.25;;;1.45;;
58878;SDS011;44660;42.664;23.266;2023-03-30T09:57:53;4.53;;;1.65;;
58878;SDS011;44660;42.664;23.266;2023-03-30T10:00:33;5.88;;;1.73;;
58878;SDS011;44660;42.664;23.266;2023-03-30T10:02:59;2.60;;;1.50;;
58878;SDS011;44660;42.664;23.266;2023-03-30T10:05:27;3.53;;;1.60;;
58878;SDS011;44660;42.664;23.266;2023-03-30T10:07:59;2.40;;;1.90;;
58878;SDS011;44660;42.664;23.266;2023-03-30T10:10:31;3.35;;;1.80;;
58878;SDS011;44660;42.664;23.266;2023-03-30T10:13:01;4.22;;;1.88;;
58878;SDS011;44660;42.664;23.266;2023-03-30T10:15:50;3.42;;;1.80;;
58878;SDS011;44660;42.664;23.266;2023-03-30T10:18:27;4.45;;;1.65;;
58878;SDS011;44660;42.664;23.266;2023-03-30T10:21:21;2.67;;;1.80;;
58878;SDS011;44660;42.664;23.266;2023-03-30T10:23:58;5.47;;;1.85;;
58878;SDS011;44660;42.664;23.266;2023-03-30T10:26:27;4.88;;;2.25;;
58878;SDS011;44660;42.664;23.266;2023-03-30T10:31:36;5.88;;;2.28;;
58878;SDS011;44660;42.664;23.266;2023-03-30T10:34:13;3.88;;;1.90;;
58878;SDS011;44660;42.664;23.266;2023-03-30T10:36:41;3.15;;;1.88;;
58878;SDS011;44660;42.664;23.266;2023-03-30T10:39:21;3.88;;;1.90;;
58878;SDS011;44660;42.664;23.266;2023-03-30T10:41:49;3.88;;;2.33;;
58878;SDS011;44660;42.664;23.266;2023-03-30T10:46:51;3.03;;;1.95;;
58878;SDS011;44660;42.664;23.266;2023-03-30T10:49:26;4.10;;;1.90;;
58878;SDS011;44660;42.664;23.266;2023-03-30T10:54:41;4.13;;;2.38;;
58878;SDS011;44660;42.664;23.266;2023-03-30T10:57:20;3.55;;;1.90;;
58878;SDS011;44660;42.664;23.266;2023-03-30T11:00:24;4.05;;;2.30;;
58878;SDS011;44660;42.664;23.266;2023-03-30T11:03:31;4.35;;;2.38;;
58878;SDS011;44660;42.664;23.266;2023-03-30T11:06:00;3.72;;;2.53;;
58878;SDS011;44660;42.664;23.266;2023-03-30T11:08:37;4.05;;;1.92;;
58878;SDS011;44660;42.664;23.266;2023-03-30T11:11:09;2.40;;;2.20;;
58878;SDS011;44660;42.664;23.266;2023-03-30T11:13:43;3.45;;;1.77;;
58878;SDS011;44660;42.664;23.266;2023-03-30T11:16:15;4.70;;;2.05;;
58878;SDS011;44660;42.664;23.266;2023-03-30T11:21:27;2.83;;;1.85;;
58878;SDS011;44660;42.664;23.266;2023-03-30T11:24:15;3.08;;;1.75;;
58878;SDS011;44660;42.664;23.266;2023-03-30T11:26:54;4.20;;;1.90;;
58878;SDS011;44660;42.664;23.266;2023-03-30T11:40:34;6.32;;;1.67;;
58878;SDS011;44660;42.664;23.266;2023-03-30T11:43:07;3.92;;;1.67;;
58878;SDS011;44660;42.664;23.266;2023-03-30T11:48:19;3.40;;;1.70;;
58878;SDS011;44660;42.664;23.266;2023-03-30T11:56:10;3.30;;;1.70;;
58878;SDS011;44660;42.664;23.266;2023-03-30T11:59:03;2.75;;;1.58;;
58878;SDS011;44660;42.664;23.266;2023-03-30T12:04:37;6.20;;;1.98;;
58878;SDS011;44660;42.664;23.266;2023-03-30T12:07:14;3.10;;;1.67;;
58878;SDS011;44660;42.664;23.266;2023-03-30T12:09:54;5.97;;;1.58;;
58878;SDS011;44660;42.664;23.266;2023-03-30T12:17:57;14.43;;;2.42;;
58878;SDS011;44660;42.664;23.266;2023-03-30T12:20:48;8.30;;;1.92;;
58878;SDS011;44660;42.664;23.266;2023-03-30T12:23:35;5.53;;;1.63;;
58878;SDS011;44660;42.664;23.266;2023-03-30T12:26:29;4.28;;;1.80;;
58878;SDS011;44660;42.664;23.266;2023-03-30T12:31:23;5.47;;;1.45;;
58878;SDS011;44660;42.664;23.266;2023-03-30T12:34:36;3.97;;;1.88;;
58878;SDS011;44660;42.664;23.266;2023-03-30T12:37:05;2.65;;;1.38;;
58878;SDS011;44660;42.664;23.266;2023-03-30T12:39:48;3.50;;;1.63;;
58878;SDS011;44660;42.664;23.266;2023-03-30T13:03:49;3.83;;;2.20;;
58878;SDS011;44660;42.664;23.266;2023-03-30T13:14:38;7.25;;;3.08;;
58878;SDS011;44660;42.664;23.266;2023-03-30T13:17:14;5.20;;;2.60;;
58878;SDS011;44660;42.664;23.266;2023-03-30T13:20:02;5.82;;;2.15;;
58878;SDS011;44660;42.664;23.266;2023-03-30T13:22:34;3.72;;;1.90;;
58878;SDS011;44660;42.664;23.266;2023-03-30T13:27:44;5.63;;;1.90;;
58878;SDS011;44660;42.664;23.266;2023-03-30T13:32:57;3.20;;;1.55;;
58878;SDS011;44660;42.664;23.266;2023-03-30T13:43:39;4.80;;;2.00;;
58878;SDS011;44660;42.664;23.266;2023-03-30T13:46:40;4.22;;;1.90;;
58878;SDS011;44660;42.664;23.266;2023-03-30T13:49:26;3.03;;;1.73;;
58878;SDS011;44660;42.664;23.266;2023-03-30T13:52:04;3.10;;;1.90;;
58878;SDS011;44660;42.664;23.266;2023-03-30T13:54:36;3.72;;;1.63;;
58878;SDS011;44660;42.664;23.266;2023-03-30T13:57:08;4.15;;;2.17;;
58878;SDS011;44660;42.664;23.266;2023-03-30T13:59:39;4.03;;;1.50;;
58878;SDS011;44660;42.664;23.266;2023-03-30T14:02:11;2.00;;;1.50;;
58878;SDS011;44660;42.664;23.266;2023-03-30T14:04:40;3.38;;;1.70;;
58878;SDS011;44660;42.664;23.266;2023-03-30T14:10:04;2.65;;;1.52;;
58878;SDS011;44660;42.664;23.266;2023-03-30T14:12:38;6.00;;;2.30;;
58878;SDS011;44660;42.664;23.266;2023-03-30T14:17:57;4.38;;;1.80;;
58878;SDS011;44660;42.664;23.266;2023-03-30T14:23:01;3.35;;;1.90;;
58878;SDS011;44660;42.664;23.266;2023-03-30T14:25:31;3.95;;;2.00;;
58878;SDS011;44660;42.664;23.266;2023-03-30T14:28:19;3.70;;;1.88;;
58878;SDS011;44660;42.664;23.266;2023-03-30T14:33:15;3.67;;;2.28;;
58878;SDS011;44660;42.664;23.266;2023-03-30T14:35:45;4.50;;;2.22;;
58878;SDS011;44660;42.664;23.266;2023-03-30T14:40:47;4.32;;;2.50;;
58878;SDS011;44660;42.664;23.266;2023-03-30T14:43:24;5.97;;;2.90;;
58878;SDS011;44660;42.664;23.266;2023-03-30T14:45:53;12.80;;;5.27;;
58878;SDS011;44660;42.664;23.266;2023-03-30T14:50:49;11.35;;;3.90;;
58878;SDS011;44660;42.664;23.266;2023-03-30T14:53:16;6.20;;;3.25;;
58878;SDS011;44660;42.664;23.266;2023-03-30T14:55:46;3.80;;;1.95;;
58878;SDS011;44660;42.664;23.266;2023-03-30T14:58:12;3.83;;;1.70;;
58878;SDS011;44660;42.664;23.266;2023-03-30T15:00:39;4.93;;;2.15;;
58878;SDS011;44660;42.664;23.266;2023-03-30T15:03:06;5.55;;;1.73;;
58878;SDS011;44660;42.664;23.266;2023-03-30T15:05:35;4.03;;;1.95;;
58878;SDS011;44660;42.664;23.266;2023-03-30T15:08:02;6.60;;;2.60;;
58878;SDS011;44660;42.664;23.266;2023-03-30T15:10:32;4.97;;;2.35;;
58878;SDS011;44660;42.664;23.266;2023-03-30T15:13:02;4.13;;;2.35;;
58878;SDS011;44660;42.664;23.266;2023-03-30T15:15:31;4.07;;;1.90;;
58878;SDS011;44660;42.664;23.266;2023-03-30T15:17:57;3.85;;;1.55;;
58878;SDS011;44660;42.664;23.266;2023-03-30T15:20:24;2.60;;;1.40;;
58878;SDS011;44660;42.664;23.266;2023-03-30T15:22:52;3.53;;;1.20;;
58878;SDS011;44660;42.664;23.266;2023-03-30T15:25:20;4.40;;;2.05;;
58878;SDS011;44660;42.664;23.266;2023-03-30T15:27:54;3.40;;;1.70;;
58878;SDS011;44660;42.664;23.266;2023-03-30T15:32:57;5.97;;;2.60;;
58878;SDS011;44660;42.664;23.266;2023-03-30T15:35:25;8.10;;;4.72;;
58878;SDS011;44660;42.664;23.266;2023-03-30T15:40:32;3.97;;;1.70;;
58878;SDS011;44660;42.664;23.266;2023-03-30T15:48:14;4.70;;;2.05;;
58878;SDS011;44660;42.664;23.266;2023-03-30T15:50:43;6.10;;;1.88;;
58878;SDS011;44660;42.664;23.266;2023-03-30T15:53:16;11.07;;;3.80;;
58878;SDS011;44660;42.664;23.266;2023-03-30T15:55:51;6.85;;;3.30;;
58878;SDS011;44660;42.664;23.266;2023-03-30T15:58:22;6.78;;;3.40;;
58878;SDS011;44660;42.664;23.266;2023-03-30T16:00:50;10.10;;;3.22;;
58878;SDS011;44660;42.664;23.266;2023-03-30T16:03:18;4.20;;;2.53;;
58878;SDS011;44660;42.664;23.266;2023-03-30T16:05:56;7.45;;;2.75;;
58878;SDS011;44660;42.664;23.266;2023-03-30T16:08:22;6.10;;;2.70;;
58878;SDS011;44660;42.664;23.266;2023-03-30T16:10:47;9.25;;;2.05;;
58878;SDS011;44660;42.664;23.266;2023-03-30T16:13:13;5.63;;;2.20;;
58878;SDS011;44660;42.664;23.266;2023-03-30T16:15:39;6.75;;;2.50;;
58878;SDS011;44660;42.664;23.266;2023-03-30T16:18:04;6.15;;;3.65;;
58878;SDS011;44660;42.664;23.266;2023-03-30T16:20:30;8.35;;;3.75;;
58878;SDS011;44660;42.664;23.266;2023-03-30T16:22:57;9.00;;;4.68;;
58878;SDS011;44660;42.664;23.266;2023-03-30T16:25:24;13.15;;;4.72;;
58878;SDS011;44660;42.664;23.266;2023-03-30T16:27:51;12.50;;;5.28;;
58878;SDS011;44660;42.664;23.266;2023-03-30T16:32:43;10.48;;;4.10;;
58878;SDS011;44660;42.664;23.266;2023-03-30T16:35:09;13.60;;;4.90;;
58878;SDS011;44660;42.664;23.266;2023-03-30T16:37:35;9.65;;;3.70;;
58878;SDS011;44660;42.664;23.266;2023-03-30T16:40:00;7.65;;;3.90;;
58878;SDS011;44660;42.664;23.266;2023-03-30T16:42:26;10.02;;;3.60;;
58878;SDS011;44660;42.664;23.266;2023-03-30T16:44:52;6.00;;;3.22;;
58878;SDS011;44660;42.664;23.266;2023-03-30T16:47:18;7.78;;;3.53;;
58878;SDS011;44660;42.664;23.266;2023-03-30T16:49:47;8.90;;;3.67;;
58878;SDS011;44660;42.664;23.266;2023-03-30T16:52:12;8.05;;;3.70;;
58878;SDS011;44660;42.664;23.266;2023-03-30T16:54:38;7.60;;;4.20;;
58878;SDS011;44660;42.664;23.266;2023-03-30T16:57:07;10.38;;;4.53;;
58878;SDS011;44660;42.664;23.266;2023-03-30T16:59:33;10.13;;;4.22;;
58878;SDS011;44660;42.664;23.266;2023-03-30T17:01:59;12.18;;;4.80;;
58878;SDS011;44660;42.664;23.266;2023-03-30T17:04:24;11.95;;;5.05;;
58878;SDS011;44660;42.664;23.266;2023-03-30T17:06:50;15.02;;;6.00;;
58878;SDS011;44660;42.664;23.266;2023-03-30T17:09:18;14.48;;;5.75;;
58878;SDS011;44660;42.664;23.266;2023-03-30T17:11:45;16.63;;;6.13;;
58878;SDS011;44660;42.664;23.266;2023-03-30T17:14:12;14.98;;;6.32;;
58878;SDS011;44660;42.664;23.266;2023-03-30T17:16:38;12.77;;;5.85;;
58878;SDS011;44660;42.664;23.266;2023-03-30T17:19:04;11.27;;;6.05;;
58878;SDS011;44660;42.664;23.266;2023-03-30T17:21:29;12.35;;;6.18;;
58878;SDS011;44660;42.664;23.266;2023-03-30T17:23:55;11.93;;;5.40;;
58878;SDS011;44660;42.664;23.266;2023-03-30T17:26:20;11.98;;;4.68;;
58878;SDS011;44660;42.664;23.266;2023-03-30T17:28:46;9.38;;;4.40;;
58878;SDS011;44660;42.664;23.266;2023-03-30T17:31:16;8.43;;;3.80;;
58878;SDS011;44660;42.664;23.266;2023-03-30T17:33:43;8.40;;;3.83;;
58878;SDS011;44660;42.664;23.266;2023-03-30T17:36:11;10.07;;;4.25;;
58878;SDS011;44660;42.664;23.266;2023-03-30T17:38:38;11.38;;;4.30;;
58878;SDS011;44660;42.664;23.266;2023-03-30T17:41:05;11.95;;;4.65;;